Time,TemperatureF,DewpointF,PressureIn,WindDirection,WindDirectionDegrees,WindSpeedMPH,WindSpeedGustMPH,Humidity,HourlyPrecipIn,Conditions,Clouds,dailyrainin,SoftwareType,DateUTC
2013-10-31 08:22:00,62.0,61.0,29.59,South,177,6.0,-999.0,97,-99.99,,,-99.99,,2013-10-31 13:22:00,
2013-10-31 08:42:00,62.0,61.0,29.59,South,177,6.0,-999.0,97,-99.99,,,-99.99,,2013-10-31 13:42:00,
2013-10-31 08:52:00,62.0,61.0,29.59,South,177,6.0,-999.0,97,-99.99,,,-99.99,,2013-10-31 13:52:00,
2013-10-31 09:11:00,62.0,61.0,29.57,SSE,155,4.0,-999.0,97,-99.99,,,-99.99,,2013-10-31 14:11:00,
2013-10-31 09:21:00,63.0,62.0,29.57,SSE,163,5.0,-999.0,97,-99.99,,,-99.99,,2013-10-31 14:21:00,
2013-10-31 09:42:00,63.0,62.0,29.56,SSE,161,5.0,-999.0,97,-99.99,,,-99.99,,2013-10-31 14:42:00,
2013-10-31 09:52:00,63.0,62.0,29.56,South,191,3.0,-999.0,96,-99.99,,,-99.99,,2013-10-31 14:52:00,
2013-10-31 10:02:00,63.0,62.0,29.56,South,191,3.0,-999.0,96,-99.99,,,-99.99,,2013-10-31 15:02:00,
2013-10-31 10:11:00,63.0,62.0,29.56,South,191,3.0,-999.0,96,-99.99,,,-99.99,,2013-10-31 15:11:00,
2013-10-31 11:23:00,57.0,56.0,29.58,NW,319,0.0,-999.0,97,-99.99,,,-99.99,,2013-10-31 16:23:00,
2013-10-31 11:53:00,58.0,57.0,29.57,NW,319,0.0,-999.0,97,-99.99,,,-99.99,,2013-10-31 16:53:00,
2013-10-31 12:22:00,58.0,57.0,29.56,SSE,165,2.0,-999.0,97,-99.99,,,-99.99,,2013-10-31 17:22:00,
2013-10-31 12:43:00,59.0,58.0,29.55,SSE,165,0.0,-999.0,96,-99.99,,,-99.99,,2013-10-31 17:43:00,
2013-10-31 12:52:00,59.0,58.0,29.55,SSE,165,1.0,-999.0,97,-99.99,,,-99.99,,2013-10-31 17:52:00,
2013-10-31 13:22:00,59.0,58.0,29.52,SSE,165,1.0,-999.0,96,-99.99,,,-99.99,,2013-10-31 18:22:00,
2013-10-31 13:52:00,59.0,58.0,29.51,SSE,165,0.0,-999.0,97,-99.99,,,-99.99,,2013-10-31 18:52:00,
2013-10-31 14:01:00,59.0,58.0,29.51,SSE,165,0.0,-999.0,97,-99.99,,,-99.99,,2013-10-31 19:01:00,
2013-10-31 14:11:00,59.0,58.0,29.51,SSE,165,0.0,-999.0,97,-99.99,,,-99.99,,2013-10-31 19:11:00,
2013-10-31 14:21:00,59.0,58.0,29.51,SSE,165,0.0,-999.0,97,-99.99,,,-99.99,,2013-10-31 19:21:00,
2013-10-31 14:52:00,59.0,58.0,29.49,NNW,328,3.0,-999.0,96,-99.99,,,-99.99,,2013-10-31 19:52:00,
2013-10-31 15:22:00,60.0,57.0,29.47,NW,305,3.0,-999.0,91,-99.99,,,-99.99,,2013-10-31 20:22:00,
2013-10-31 15:52:00,57.0,55.0,29.50,NNW,335,5.0,-999.0,92,-99.99,,,-99.99,,2013-10-31 20:52:00,
2013-10-31 16:22:00,57.0,55.0,29.51,NW,317,4.0,-999.0,93,-99.99,,,-99.99,,2013-10-31 21:22:00,
2013-10-31 16:44:00,56.0,54.0,29.52,NW,307,5.0,-999.0,93,-99.99,,,-99.99,,2013-10-31 21:44:00,
2013-10-31 16:54:00,56.0,54.0,29.52,NW,313,5.0,-999.0,94,-99.99,,,-99.99,,2013-10-31 21:54:00,
2013-10-31 17:13:00,55.0,53.0,29.53,NW,311,5.0,-999.0,94,-99.99,,,-99.99,,2013-10-31 22:13:00,
2013-10-31 17:24:00,53.0,52.0,29.56,WNW,297,6.0,-999.0,95,-99.99,,,-99.99,,2013-10-31 22:24:00,
2013-10-31 17:53:00,52.0,51.0,29.59,NW,305,4.0,-999.0,96,-99.99,,,-99.99,,2013-10-31 22:53:00,
2013-10-31 18:22:00,52.0,51.0,29.61,NNW,336,2.0,-999.0,95,-99.99,,,-99.99,,2013-10-31 23:22:00,
2013-10-31 18:34:00,52.0,51.0,29.61,NNW,336,2.0,-999.0,95,-99.99,,,-99.99,,2013-10-31 23:34:00,
2013-10-31 18:43:00,52.0,51.0,29.61,NNW,336,2.0,-999.0,95,-99.99,,,-99.99,,2013-10-31 23:43:00,
2013-10-31 18:53:00,52.0,51.0,29.61,NNW,336,2.0,-999.0,95,-99.99,,,-99.99,,2013-10-31 23:53:00,
2013-10-31 21:42:00,48.0,47.0,29.70,NNE,19,1.0,-999.0,97,-99.99,,,-99.99,,2013-11-01 02:42:00,
2013-10-31 21:52:00,48.0,47.0,29.70,NNE,19,1.0,-999.0,97,-99.99,,,-99.99,,2013-11-01 02:52:00,
2013-10-31 22:03:00,48.0,47.0,29.70,NNE,19,1.0,-999.0,97,-99.99,,,-99.99,,2013-11-01 03:03:00,